createdAt,value
2023-03-15T00:03:39.771Z,16
2023-03-15T00:09:17.574Z,16.1
2023-03-15T00:14:39.688Z,16.1
2023-03-15T00:20:17.148Z,16
2023-03-15T00:26:10.037Z,15.9
2023-03-15T00:32:04.150Z,15.9
2023-03-15T00:37:56.750Z,16
2023-03-15T00:43:34.381Z,16.1
2023-03-15T00:49:11.662Z,16
2023-03-15T00:54:49.125Z,15.9
2023-03-15T00:59:40.495Z,15.8
2023-03-15T01:05:17.769Z,15.7
2023-03-15T01:10:55.925Z,15.6
2023-03-15T01:16:48.358Z,15.6
2023-03-15T01:22:42.020Z,15.6
2023-03-15T01:28:34.400Z,15.8
2023-03-15T01:34:11.218Z,15.9
2023-03-15T01:40:04.134Z,15.8
2023-03-15T01:45:56.182Z,15.8
2023-03-15T01:51:32.987Z,15.7
2023-03-15T01:57:10.664Z,15.6
2023-03-15T02:02:48.598Z,15.6
2023-03-15T02:08:10.126Z,15.8
2023-03-15T02:14:02.534Z,15.9
2023-03-15T02:19:25.127Z,15.9
2023-03-15T02:25:18.327Z,15.8
2023-03-15T02:31:11.552Z,15.7
2023-03-15T02:36:18.692Z,15.6
2023-03-15T02:42:11.756Z,15.6
2023-03-15T02:48:04.744Z,15.6
2023-03-15T02:53:41.977Z,15.8
2023-03-15T02:59:18.598Z,15.9
2023-03-15T03:05:11.816Z,15.9
2023-03-15T03:11:04.764Z,15.8
2023-03-15T03:16:25.587Z,15.6
2023-03-15T03:22:03.061Z,15.5
2023-03-15T03:27:40.820Z,15.4
2023-03-15T03:33:35.183Z,15.4
2023-03-15T03:39:27.579Z,15.7
2023-03-15T03:45:04.998Z,15.9
2023-03-15T03:50:58.027Z,15.9
2023-03-15T03:56:51.327Z,15.8
2023-03-15T04:02:13.202Z,15.7
2023-03-15T04:07:49.831Z,15.6
2023-03-15T04:13:42.703Z,15.5
2023-03-15T04:19:20.585Z,15.6
2023-03-15T04:24:57.447Z,15.8
2023-03-15T04:30:50.819Z,15.8
2023-03-15T04:36:43.320Z,15.8
2023-03-15T04:42:35.807Z,15.7
2023-03-15T04:48:12.415Z,15.6
2023-03-15T04:53:49.975Z,15.5
2023-03-15T04:59:27.135Z,15.4
2023-03-15T05:05:06.652Z,15.6
2023-03-15T05:11:02.793Z,15.6
2023-03-15T05:16:39.887Z,15.7
2023-03-15T05:22:17.652Z,15.6
2023-03-15T05:28:10.516Z,15.6
2023-03-15T05:33:48.005Z,15.5
2023-03-15T05:39:39.962Z,15.4
2023-03-15T05:45:32.710Z,15.4
2023-03-15T05:51:25.628Z,15.3
2023-03-15T05:57:20.728Z,15.2
2023-03-15T06:02:58.778Z,15.5
2023-03-15T06:08:36.711Z,15.7
2023-03-15T06:14:14.062Z,15.6
2023-03-15T06:20:09.881Z,15.6
2023-03-15T06:26:01.978Z,15.5
2023-03-15T06:31:56.898Z,15.4
2023-03-15T06:37:49.165Z,15.4
2023-03-15T06:43:42.726Z,15.6
2023-03-15T06:49:35.748Z,15.8
2023-03-15T06:55:44.688Z,15.8
2023-03-15T07:01:38.471Z,15.7
2023-03-15T07:07:16.715Z,15.8
2023-03-15T07:13:09.379Z,15.9
2023-03-15T07:19:03.375Z,15.9
2023-03-15T07:25:03.597Z,15.8
2023-03-15T07:30:56.856Z,15.7
2023-03-15T07:36:53.177Z,15.9
2023-03-15T07:42:46.112Z,15.9
2023-03-15T07:48:41.224Z,15.9
2023-03-15T07:54:34.940Z,15.8
2023-03-15T08:00:17.534Z,15.7
2023-03-15T08:06:02.088Z,15.7
2023-03-15T08:11:23.842Z,15.8
2023-03-15T08:17:01.757Z,15.9
2023-03-15T08:22:56.314Z,15.9
2023-03-15T08:28:49.513Z,15.8
2023-03-15T08:34:43.529Z,15.7
2023-03-15T08:40:38.921Z,15.7
2023-03-15T08:46:50.575Z,15.8
2023-03-15T08:52:43.632Z,15.8
2023-03-15T08:58:37.855Z,15.8
2023-03-15T09:04:34.391Z,15.7
2023-03-15T09:10:13.650Z,15.6
2023-03-15T09:16:07.010Z,15.8
2023-03-15T09:22:10.359Z,15.9
2023-03-15T09:27:59.618Z,15.9
2023-03-15T09:33:52.947Z,15.8
2023-03-15T09:39:49.825Z,15.6
2023-03-15T09:45:41.936Z,15.7
2023-03-15T09:51:19.316Z,15.8
2023-03-15T09:57:13.047Z,15.8
2023-03-15T10:02:51.137Z,15.8
2023-03-15T10:08:44.769Z,15.7
2023-03-15T10:14:37.993Z,15.6
2023-03-15T10:20:30.858Z,15.5
2023-03-15T10:26:24.485Z,15.6
2023-03-15T10:32:31.952Z,15.8
2023-03-15T10:38:36.938Z,15.8
2023-03-15T10:44:36.050Z,15.7
2023-03-15T10:50:46.324Z,15.6
2023-03-15T10:56:43.964Z,15.6
2023-03-15T11:02:48.084Z,15.4
2023-03-15T11:08:42.498Z,15.6
2023-03-15T11:14:35.277Z,15.7
2023-03-15T11:20:28.606Z,15.8
2023-03-15T11:26:31.824Z,15.7
2023-03-15T11:32:09.355Z,15.7
2023-03-15T11:38:22.846Z,15.6
2023-03-15T11:44:19.483Z,15.5
2023-03-15T11:49:40.697Z,15.6
2023-03-15T11:55:33.711Z,15.6
2023-03-15T12:01:14.114Z,15.7
2023-03-15T12:07:14.499Z,15.6
2023-03-15T12:12:52.589Z,15.6
2023-03-15T12:18:46.613Z,15.5
2023-03-15T12:24:08.709Z,15.4
2023-03-15T12:29:59.207Z,15.4
2023-03-15T12:35:36.493Z,15.6
2023-03-15T12:41:16.770Z,15.8
2023-03-15T12:46:39.725Z,15.7
2023-03-15T12:52:17.124Z,15.6
2023-03-15T12:58:05.939Z,15.6
2023-03-15T13:03:35.450Z,15.5
2023-03-15T13:09:31.788Z,15.5
2023-03-15T13:15:08.971Z,15.5
2023-03-15T13:20:46.114Z,15.7
2023-03-15T13:26:31.344Z,15.8
2023-03-15T13:32:07.789Z,15.8
2023-03-15T13:37:45.610Z,15.7
2023-03-15T13:43:22.616Z,15.6
2023-03-15T13:49:00.902Z,15.5
2023-03-15T13:54:55.527Z,15.5
2023-03-15T14:00:42.283Z,15.6
2023-03-15T14:06:20.969Z,15.7
2023-03-15T14:11:42.341Z,15.8
2023-03-15T14:17:36.761Z,15.8
2023-03-15T14:23:14.611Z,15.7
2023-03-15T14:28:51.861Z,15.6
2023-03-15T14:34:44.665Z,15.6
2023-03-15T14:40:37.939Z,15.5
2023-03-15T14:46:15.690Z,15.7
2023-03-15T14:52:20.419Z,15.8
2023-03-15T14:58:15.522Z,15.8
2023-03-15T15:04:08.313Z,15.7
2023-03-15T15:10:00.467Z,15.7
2023-03-15T15:16:26.552Z,15.6
2023-03-15T15:22:23.363Z,15.6
2023-03-15T15:28:11.171Z,15.7
2023-03-15T15:34:12.489Z,15.8
2023-03-15T15:40:07.872Z,15.8
2023-03-15T15:46:02.587Z,15.7
2023-03-15T15:51:38.967Z,15.6
2023-03-15T15:57:30.939Z,15.6
2023-03-15T16:03:23.946Z,15.6
2023-03-15T16:09:18.633Z,15.6
2023-03-15T16:15:10.885Z,15.7
2023-03-15T16:21:04.358Z,15.8
2023-03-15T16:26:56.816Z,15.8
2023-03-15T16:33:00.340Z,15.8
2023-03-15T16:38:37.683Z,15.7
2023-03-15T16:44:15.034Z,15.6
2023-03-15T16:50:07.960Z,15.6
2023-03-15T16:56:21.235Z,15.6
2023-03-15T17:02:16.822Z,15.8
2023-03-15T17:08:09.440Z,15.9
2023-03-15T17:14:01.912Z,15.8
2023-03-15T17:19:55.090Z,15.8
2023-03-15T17:25:50.387Z,15.7
2023-03-15T17:31:58.792Z,15.5
2023-03-15T17:37:36.485Z,15.5
2023-03-15T17:43:13.116Z,15.8
2023-03-15T17:48:35.695Z,15.9
2023-03-15T17:54:12.337Z,15.8
2023-03-15T18:00:12.475Z,15.8
2023-03-15T18:06:13.613Z,15.7
2023-03-15T18:12:20.264Z,15.7
2023-03-15T18:18:13.164Z,15.8
2023-03-15T18:24:06.167Z,15.8
2023-03-15T18:29:58.596Z,15.8
2023-03-15T18:35:36.783Z,15.8
2023-03-15T18:41:14.324Z,15.7
2023-03-15T18:47:08.594Z,15.6
2023-03-15T18:53:07.018Z,15.6
2023-03-15T18:58:28.941Z,15.7
2023-03-15T19:03:53.709Z,15.9
2023-03-15T19:09:31.521Z,15.9
2023-03-15T19:15:09.201Z,15.8
2023-03-15T19:20:30.607Z,15.7
2023-03-15T19:26:07.322Z,15.6
2023-03-15T19:32:00.658Z,15.6
2023-03-15T19:37:38.394Z,15.5
2023-03-15T19:43:15.421Z,15.6
2023-03-15T19:48:37.568Z,15.8
2023-03-15T19:54:15.426Z,15.8
2023-03-15T19:59:55.280Z,15.8
2023-03-15T20:05:52.401Z,15.7
2023-03-15T20:11:30.437Z,15.6
2023-03-15T20:17:09.346Z,15.6
2023-03-15T20:22:46.647Z,15.5
2023-03-15T20:28:09.194Z,15.6
2023-03-15T20:34:03.748Z,15.8
2023-03-15T20:39:41.960Z,15.8
2023-03-15T20:45:04.352Z,15.8
2023-03-15T20:50:11.389Z,15.6
2023-03-15T20:55:33.555Z,15.5
2023-03-15T21:00:42.406Z,15.4
2023-03-15T21:06:19.611Z,15.5
2023-03-15T21:12:12.518Z,15.6
2023-03-15T21:18:08.504Z,15.6
2023-03-15T21:23:17.422Z,15.6
2023-03-15T21:29:07.863Z,15.4
2023-03-15T21:35:01.356Z,15.3
2023-03-15T21:40:53.565Z,15.3
2023-03-15T21:46:31.053Z,15.1
2023-03-15T21:51:22.605Z,15.1
2023-03-15T21:56:59.531Z,15.2
2023-03-15T22:02:37.393Z,15.3
2023-03-15T22:08:02.090Z,15.4
2023-03-15T22:13:39.172Z,15.4
2023-03-15T22:19:42.823Z,15.3
2023-03-15T22:25:04.175Z,15.2
2023-03-15T22:30:41.705Z,15.2
2023-03-15T22:36:03.608Z,15.1
2023-03-15T22:41:40.769Z,14.9
2023-03-15T22:47:17.912Z,15
2023-03-15T22:52:55.735Z,15.1
2023-03-15T22:58:17.056Z,15.3
2023-03-15T23:03:54.587Z,15.3
2023-03-15T23:09:48.045Z,15.3
2023-03-15T23:15:05.988Z,15.1
2023-03-15T23:20:12.677Z,15.1
2023-03-15T23:25:19.537Z,14.9
2023-03-15T23:30:09.946Z,14.9
2023-03-15T23:35:32.833Z,14.9
2023-03-15T23:41:12.579Z,15
2023-03-15T23:46:51.350Z,15.1
2023-03-15T23:52:44.532Z,15.3
2023-03-15T23:58:21.413Z,15.1
